createdAt,value
2018-07-08T00:00:27.734Z,3.7
2018-07-08T00:02:31.063Z,3.7
2018-07-08T00:04:34.390Z,3.7
2018-07-08T00:06:37.721Z,3.7
2018-07-08T00:08:41.050Z,3.7
2018-07-08T00:10:44.378Z,3.7
2018-07-08T00:12:50.577Z,3.7
2018-07-08T00:14:53.907Z,3.7
2018-07-08T00:16:57.233Z,3.7
2018-07-08T00:19:00.561Z,3.7
2018-07-08T00:21:03.892Z,3.7
2018-07-08T00:23:10.686Z,3.7
2018-07-08T00:25:17.185Z,3.7
2018-07-08T00:27:26.448Z,3.7
2018-07-08T00:29:29.774Z,3.7
2018-07-08T00:31:33.105Z,3.7
2018-07-08T00:33:36.433Z,3.7
2018-07-08T00:35:39.807Z,3.7
2018-07-08T00:37:43.091Z,3.7
2018-07-08T00:39:46.591Z,3.7
2018-07-08T00:41:50.027Z,3.7
2018-07-08T00:43:53.355Z,3.7
2018-07-08T00:45:56.735Z,3.7
2018-07-08T00:48:00.065Z,3.7
2018-07-08T00:50:03.392Z,3.7
2018-07-08T00:52:06.723Z,3.7
2018-07-08T00:54:10.053Z,3.7
2018-07-08T00:56:13.385Z,3.7
2018-07-08T00:58:16.711Z,3.7
2018-07-08T01:00:20.042Z,3.7
2018-07-08T01:02:26.332Z,3.7
2018-07-08T01:04:29.643Z,3.7
2018-07-08T01:06:33.013Z,3.7
2018-07-08T01:08:36.343Z,3.7
2018-07-08T01:10:39.688Z,3.7
2018-07-08T01:12:43.019Z,3.7
2018-07-08T01:14:46.345Z,3.7
2018-07-08T01:16:49.679Z,3.7
2018-07-08T01:18:53.086Z,3.7
2018-07-08T01:20:56.362Z,3.7
2018-07-08T01:22:59.692Z,3.7
2018-07-08T01:25:03.039Z,3.7
2018-07-08T01:27:06.349Z,3.7
2018-07-08T01:29:12.646Z,3.7
2018-07-08T01:31:15.975Z,3.7
2018-07-08T01:33:19.304Z,3.7
2018-07-08T01:35:22.636Z,3.7
2018-07-08T01:37:25.963Z,3.7
2018-07-08T01:39:29.293Z,3.7
2018-07-08T01:41:32.625Z,3.7
2018-07-08T01:43:35.951Z,3.7
2018-07-08T01:45:39.319Z,3.7
2018-07-08T01:47:42.643Z,3.7
2018-07-08T01:49:45.973Z,3.7
2018-07-08T01:51:52.284Z,3.7
2018-07-08T01:53:55.615Z,3.7
2018-07-08T01:55:58.944Z,3.7
2018-07-08T01:58:02.340Z,3.7
2018-07-08T02:00:08.711Z,3.7
2018-07-08T02:02:13.117Z,3.7
2018-07-08T02:04:16.392Z,3.7
2018-07-08T02:06:19.797Z,3.7
2018-07-08T02:08:23.074Z,3.7
2018-07-08T02:10:26.437Z,3.7
2018-07-08T02:12:29.815Z,3.7
2018-07-08T02:14:33.158Z,3.7
2018-07-08T02:16:36.475Z,3.7
2018-07-08T02:18:39.805Z,3.7
2018-07-08T02:20:43.165Z,3.7
2018-07-08T02:22:46.493Z,3.7
2018-07-08T02:24:49.840Z,3.7
2018-07-08T02:26:53.171Z,3.7
2018-07-08T02:28:56.499Z,3.7
2018-07-08T02:30:59.828Z,3.7
2018-07-08T02:33:03.158Z,3.7
2018-07-08T02:35:06.488Z,3.7
2018-07-08T02:37:09.820Z,3.7
2018-07-08T02:39:13.147Z,3.7
2018-07-08T02:41:16.478Z,3.7
2018-07-08T02:43:19.804Z,3.7
2018-07-08T02:45:23.228Z,3.7
2018-07-08T02:47:26.503Z,3.8
2018-07-08T02:49:29.832Z,3.8
2018-07-08T02:51:33.162Z,3.8
2018-07-08T02:53:36.588Z,3.8
2018-07-08T02:55:39.904Z,3.8
2018-07-08T02:57:43.233Z,3.8
2018-07-08T02:59:46.565Z,3.8
2018-07-08T03:01:50.072Z,3.8
2018-07-08T03:03:53.401Z,3.8
2018-07-08T03:05:56.731Z,3.8
2018-07-08T03:08:00.070Z,3.9
2018-07-08T03:10:03.389Z,3.9
2018-07-08T03:12:06.912Z,3.9
2018-07-08T03:14:10.242Z,3.9
2018-07-08T03:16:13.574Z,3.9
2018-07-08T03:18:16.905Z,3.9
2018-07-08T03:20:20.271Z,3.9
2018-07-08T03:22:23.564Z,4
2018-07-08T03:24:26.892Z,4
2018-07-08T03:26:30.223Z,4.1
2018-07-08T03:28:33.632Z,4.1
2018-07-08T03:30:36.910Z,4.1
2018-07-08T03:32:40.249Z,4.2
2018-07-08T03:34:43.579Z,4.2
2018-07-08T03:36:46.909Z,4.3
2018-07-08T03:38:50.238Z,4.4
2018-07-08T03:40:53.565Z,4.5
2018-07-08T03:42:56.893Z,4.6
2018-07-08T03:45:00.224Z,4.7
2018-07-08T03:47:03.554Z,4.7
2018-07-08T03:49:06.882Z,4.8
2018-07-08T03:51:10.211Z,4.9
2018-07-08T03:53:13.543Z,5.1
2018-07-08T03:55:16.871Z,5.1
2018-07-08T03:57:20.200Z,1.5
2018-07-08T03:59:23.590Z,1.6
2018-07-08T04:01:26.865Z,1.6
2018-07-08T04:03:30.193Z,1.7
2018-07-08T04:05:33.525Z,1.7
2018-07-08T04:07:36.852Z,1.8
2018-07-08T04:09:40.182Z,1.7
2018-07-08T04:11:43.514Z,1.8
2018-07-08T04:13:46.844Z,1.8
2018-07-08T04:15:50.181Z,1.8
2018-07-08T04:17:53.502Z,1.8
2018-07-08T04:19:56.831Z,1.8
2018-07-08T04:22:00.162Z,1.8
2018-07-08T04:24:03.490Z,1.9
2018-07-08T04:26:09.471Z,2.2
2018-07-08T04:28:12.797Z,2.1
2018-07-08T04:30:16.134Z,2
2018-07-08T04:32:19.466Z,2.1
2018-07-08T04:34:22.795Z,2.1
2018-07-08T04:36:26.127Z,2.1
2018-07-08T04:38:29.457Z,2.2
2018-07-08T04:40:32.786Z,2.2
2018-07-08T04:42:36.117Z,2.2
2018-07-08T04:44:39.444Z,2.3
2018-07-08T04:46:42.832Z,2.4
2018-07-08T04:48:46.107Z,2.4
2018-07-08T04:50:49.437Z,2.5
2018-07-08T04:52:52.767Z,2.7
2018-07-08T04:54:56.095Z,2.8
2018-07-08T04:56:59.424Z,2.8
2018-07-08T04:59:02.754Z,3
2018-07-08T05:01:06.083Z,3
2018-07-08T05:03:09.413Z,2.8
2018-07-08T05:05:12.774Z,2.7
2018-07-08T05:07:16.104Z,2.6
2018-07-08T05:09:19.436Z,2.4
2018-07-08T05:11:22.764Z,2.3
2018-07-08T05:13:26.130Z,2.3
2018-07-08T05:15:29.459Z,2.2
2018-07-08T05:17:32.789Z,2.1
2018-07-08T05:19:36.116Z,1.9
2018-07-08T05:21:39.481Z,2
2018-07-08T05:23:42.814Z,2
2018-07-08T05:25:46.140Z,2.2
2018-07-08T05:27:49.469Z,2.2
2018-07-08T05:29:53.087Z,1.8
2018-07-08T05:31:56.679Z,1.8
2018-07-08T05:34:00.028Z,1.8
2018-07-08T05:36:03.346Z,1.8
2018-07-08T05:38:06.677Z,1.8
2018-07-08T05:40:10.009Z,2
2018-07-08T05:42:13.335Z,2.2
2018-07-08T05:44:16.695Z,2.5
2018-07-08T05:46:20.026Z,2.7
2018-07-08T05:48:23.353Z,2.9
2018-07-08T05:50:27.345Z,3.2
2018-07-08T05:52:30.853Z,3.5
2018-07-08T05:54:34.181Z,3.8
2018-07-08T05:56:37.515Z,4
2018-07-08T05:58:40.841Z,4.2
2018-07-08T06:00:44.225Z,4.4
2018-07-08T06:02:47.535Z,4.7
2018-07-08T06:04:50.910Z,4.9
2018-07-08T06:06:54.193Z,5.2
2018-07-08T06:08:57.522Z,5.4
2018-07-08T06:11:00.852Z,5.4
2018-07-08T06:13:04.180Z,5.4
2018-07-08T06:15:07.511Z,5
2018-07-08T06:17:10.849Z,4.5
2018-07-08T06:19:14.170Z,4.1
2018-07-08T06:21:17.501Z,3.7
2018-07-08T06:23:20.828Z,3.6
2018-07-08T06:25:24.193Z,3.7
2018-07-08T06:27:27.522Z,4
2018-07-08T06:29:30.854Z,4.4
2018-07-08T06:31:34.182Z,4.8
2018-07-08T06:33:37.515Z,5.5
2018-07-08T06:35:40.841Z,5.6
2018-07-08T06:37:44.172Z,5.7
2018-07-08T06:39:47.501Z,5.5
2018-07-08T06:41:50.828Z,4.9
2018-07-08T06:43:54.228Z,4.4
2018-07-08T06:45:57.504Z,4.2
2018-07-08T06:48:00.909Z,4.3
2018-07-08T06:50:04.186Z,4.4
2018-07-08T06:52:08.736Z,4.2
2018-07-08T06:54:12.077Z,4.1
2018-07-08T06:56:15.501Z,4.1
2018-07-08T06:58:18.779Z,4.2
2018-07-08T07:00:22.108Z,4.1
2018-07-08T07:02:25.440Z,4.1
2018-07-08T07:04:28.770Z,4.2
2018-07-08T07:06:32.099Z,4.4
2018-07-08T07:08:35.428Z,4.7
2018-07-08T07:10:38.758Z,4.9
2018-07-08T07:12:42.088Z,5.4
2018-07-08T07:14:45.415Z,5.6
2018-07-08T07:16:48.747Z,5.8
2018-07-08T07:18:52.075Z,5.9
2018-07-08T07:20:55.403Z,6
2018-07-08T07:22:59.754Z,6.3
2018-07-08T07:25:03.188Z,6.6
2018-07-08T07:27:06.583Z,6.8
2018-07-08T07:29:09.859Z,7.3
2018-07-08T07:31:13.188Z,7.8
2018-07-08T07:33:16.523Z,8.2
2018-07-08T07:35:19.852Z,8.4
2018-07-08T07:37:23.471Z,8.7
2018-07-08T07:39:27.242Z,8.6
2018-07-08T07:41:30.519Z,8.6
2018-07-08T07:43:33.847Z,8.8
2018-07-08T07:45:37.177Z,9.5
2018-07-08T07:47:40.511Z,9.4
2018-07-08T07:49:43.841Z,8.7
2018-07-08T07:51:47.170Z,8.5
2018-07-08T07:53:50.500Z,8.4
2018-07-08T07:55:53.839Z,8.1
2018-07-08T07:57:57.169Z,7.9
2018-07-08T08:00:00.498Z,7.7
2018-07-08T08:02:04.809Z,7.6
2018-07-08T08:04:08.087Z,7.7
2018-07-08T08:06:11.440Z,7.7
2018-07-08T08:08:14.749Z,7.7
2018-07-08T08:10:18.122Z,6.9
2018-07-08T08:12:21.455Z,6.5
2018-07-08T08:14:24.802Z,6.5
2018-07-08T08:16:28.110Z,6.6
2018-07-08T08:18:31.443Z,6.7
2018-07-08T08:20:34.770Z,6.7
2018-07-08T08:22:39.193Z,6.8
2018-07-08T08:24:42.469Z,7
2018-07-08T08:26:46.120Z,7.4
2018-07-08T08:28:49.646Z,7.7
2018-07-08T08:30:52.980Z,8.1
2018-07-08T08:32:56.306Z,8.6
2018-07-08T08:34:59.635Z,9.2
2018-07-08T08:37:02.967Z,9.8
2018-07-08T08:39:06.296Z,10.2
2018-07-08T08:41:09.625Z,10.5
2018-07-08T08:43:12.956Z,10.8
2018-07-08T08:45:16.296Z,11.2
2018-07-08T08:47:19.618Z,11.2
2018-07-08T08:49:22.979Z,10.9
2018-07-08T08:51:26.278Z,10.9
2018-07-08T08:53:29.659Z,10.8
2018-07-08T08:55:32.937Z,10.2
2018-07-08T08:57:36.271Z,9.8
2018-07-08T08:59:39.600Z,9.7
2018-07-08T09:01:42.932Z,9.4
2018-07-08T09:03:46.374Z,9.9
2018-07-08T09:05:49.753Z,9.5
2018-07-08T09:07:53.083Z,9.4
2018-07-08T09:09:56.412Z,8.8
2018-07-08T09:11:59.741Z,7.4
2018-07-08T09:14:03.070Z,5.4
2018-07-08T09:16:06.403Z,4.2
2018-07-08T09:18:09.727Z,3.7
2018-07-08T09:20:13.058Z,3.3
2018-07-08T09:22:16.422Z,3.2
2018-07-08T09:24:19.749Z,3.2
2018-07-08T09:26:23.079Z,3.3
2018-07-08T09:28:26.408Z,2.9
2018-07-08T09:30:29.738Z,3.1
2018-07-08T09:32:33.067Z,3.2
2018-07-08T09:34:36.394Z,3.2
2018-07-08T09:36:39.762Z,3.1
2018-07-08T09:38:43.403Z,2.8
2018-07-08T09:40:47.160Z,2.7
2018-07-08T09:42:50.492Z,2.8
2018-07-08T09:44:53.902Z,2.9
2018-07-08T09:46:57.231Z,3.3
2018-07-08T09:49:00.560Z,3.9
2018-07-08T09:51:03.889Z,4.2
2018-07-08T09:53:07.218Z,4.6
2018-07-08T09:55:10.548Z,4.7
2018-07-08T09:57:13.883Z,4.7
2018-07-08T09:59:17.207Z,4.4
2018-07-08T10:01:20.534Z,4.2
2018-07-08T10:03:23.864Z,4.5
2018-07-08T10:05:27.374Z,4.5
2018-07-08T10:07:30.702Z,5.3
2018-07-08T10:09:34.033Z,23
2018-07-08T10:11:37.401Z,22.9
2018-07-08T10:13:40.984Z,22.7
2018-07-08T10:15:44.620Z,22.6
2018-07-08T10:17:48.556Z,23
2018-07-08T10:19:53.362Z,25.7
2018-07-08T10:21:57.859Z,25.4
2018-07-08T10:24:04.237Z,25.7
2018-07-08T10:26:07.548Z,24.1
2018-07-08T10:28:10.841Z,23.8
2018-07-08T10:30:14.284Z,24.3
2018-07-08T10:32:17.563Z,23.8
2018-07-08T10:34:20.906Z,23.9
2018-07-08T10:36:24.238Z,25.4
2018-07-08T10:38:27.609Z,26.1
2018-07-08T10:40:31.032Z,29.3
2018-07-08T10:42:34.359Z,27.2
2018-07-08T10:44:37.664Z,27.7
2018-07-08T10:46:40.996Z,28.1
2018-07-08T10:48:44.326Z,28.4
2018-07-08T10:50:47.656Z,28.6
2018-07-08T10:52:50.987Z,29.5
2018-07-08T10:54:54.320Z,29.7
2018-07-08T10:56:57.665Z,29.5
2018-07-08T10:59:01.080Z,29.7
2018-07-08T11:01:04.368Z,29.5
2018-07-08T11:03:07.697Z,30.2
2018-07-08T11:05:11.069Z,29.9
2018-07-08T11:07:14.399Z,29.9
2018-07-08T11:09:17.730Z,29.5
2018-07-08T11:11:21.059Z,29.5
2018-07-08T11:13:24.389Z,29.2
2018-07-08T11:15:27.723Z,29.3
2018-07-08T11:17:31.052Z,29.9
2018-07-08T11:19:34.445Z,32.9
2018-07-08T11:21:37.781Z,31.5
2018-07-08T11:23:41.147Z,11
2018-07-08T11:25:44.478Z,10.8
2018-07-08T11:27:47.809Z,10.8
2018-07-08T11:29:51.139Z,10.6
2018-07-08T11:31:54.468Z,10.4
2018-07-08T11:33:57.802Z,10.5
2018-07-08T11:36:01.156Z,10.3
2018-07-08T11:38:04.763Z,10.3
2018-07-08T11:40:08.128Z,10.2
2018-07-08T11:42:11.462Z,10.1
2018-07-08T11:44:14.789Z,10.3
2018-07-08T11:46:18.118Z,10.4
2018-07-08T11:48:21.459Z,10.5
2018-07-08T11:50:24.790Z,10.2
2018-07-08T11:52:28.120Z,9.7
2018-07-08T11:54:31.449Z,9.8
2018-07-08T11:56:34.786Z,9.7
2018-07-08T11:58:38.107Z,9.8
2018-07-08T12:00:41.438Z,9.9
2018-07-08T12:02:44.766Z,10
2018-07-08T12:04:49.211Z,10.3
2018-07-08T12:06:52.539Z,10.4
2018-07-08T12:08:56.245Z,10.3
2018-07-08T12:10:59.650Z,10.4
2018-07-08T12:13:02.987Z,10.4
2018-07-08T12:15:06.322Z,10.7
2018-07-08T12:17:09.659Z,32.2
2018-07-08T12:19:12.976Z,31.3
2018-07-08T12:21:16.530Z,31.3
2018-07-08T12:23:19.952Z,31.5
2018-07-08T12:25:23.327Z,32
2018-07-08T12:27:26.613Z,32.4
2018-07-08T12:29:29.942Z,35.5
2018-07-08T12:31:33.271Z,36.7
2018-07-08T12:33:36.602Z,35.1
2018-07-08T12:35:39.934Z,34.4
2018-07-08T12:37:43.267Z,35.8
2018-07-08T12:39:46.593Z,34.9
2018-07-08T12:41:49.926Z,38
2018-07-08T12:43:53.253Z,41.9
2018-07-08T12:45:56.584Z,43.4
2018-07-08T12:47:59.928Z,45.9
2018-07-08T12:50:03.283Z,31.5
2018-07-08T12:52:06.619Z,30.2
2018-07-08T12:54:09.985Z,34.7
2018-07-08T12:56:13.390Z,48.2
2018-07-08T12:58:16.671Z,42.7
2018-07-08T13:00:20.068Z,32.6
2018-07-08T13:02:23.346Z,27.5
2018-07-08T13:04:26.752Z,25.7
2018-07-08T13:06:30.175Z,23.9
2018-07-08T13:08:33.566Z,24.3
2018-07-08T13:10:36.892Z,25.2
2018-07-08T13:12:40.223Z,26.5
2018-07-08T13:14:43.553Z,28.6
2018-07-08T13:16:46.884Z,31.9
2018-07-08T13:18:50.247Z,32.9
2018-07-08T13:20:53.574Z,51.5
2018-07-08T13:23:00.881Z,55.1
2018-07-08T13:25:04.164Z,41
2018-07-08T13:27:07.529Z,42.7
2018-07-08T13:29:10.896Z,37.3
2018-07-08T13:31:14.229Z,29.2
2018-07-08T13:33:17.555Z,22.3
2018-07-08T13:35:20.904Z,21
2018-07-08T13:37:24.216Z,21.2
2018-07-08T13:39:27.549Z,21.2
2018-07-08T13:41:30.877Z,21.2
2018-07-08T13:43:34.206Z,21.7
2018-07-08T13:45:38.488Z,22
2018-07-08T13:47:41.816Z,21.7
2018-07-08T13:49:45.146Z,21.6
2018-07-08T13:51:48.475Z,21
2018-07-08T13:53:51.867Z,20.9
2018-07-08T13:55:55.159Z,20.8
2018-07-08T13:57:58.550Z,20.2
2018-07-08T14:00:01.881Z,20.3
2018-07-08T14:02:05.213Z,20.4
2018-07-08T14:04:08.544Z,20.4
2018-07-08T14:06:11.877Z,20.6
2018-07-08T14:08:15.205Z,20
2018-07-08T14:10:19.526Z,20
2018-07-08T14:12:22.858Z,3.1
2018-07-08T14:14:26.270Z,3.2
2018-07-08T14:16:29.547Z,3.2
2018-07-08T14:18:32.914Z,3.2
2018-07-08T14:20:42.800Z,3.4
2018-07-08T14:22:46.391Z,3.5
2018-07-08T14:24:49.666Z,3.6
2018-07-08T14:26:53.074Z,3.6
2018-07-08T14:28:56.544Z,3.9
2018-07-08T14:30:59.893Z,4
2018-07-08T14:33:03.444Z,4.1
2018-07-08T14:35:07.026Z,4.2
2018-07-08T14:37:10.426Z,4.3
2018-07-08T14:39:14.361Z,4.2
2018-07-08T14:41:17.741Z,4.1
2018-07-08T14:43:21.265Z,3.8
2018-07-08T14:45:27.513Z,3.6
2018-07-08T14:47:36.428Z,3.5
2018-07-08T14:49:39.753Z,3.3
2018-07-08T14:51:43.219Z,3.1
2018-07-08T14:53:46.525Z,2.8
2018-07-08T14:55:52.946Z,2.4
2018-07-08T14:57:56.263Z,2.3
2018-07-08T14:59:59.592Z,2.2
2018-07-08T15:02:03.104Z,2.2
2018-07-08T15:04:07.391Z,2.4
2018-07-08T15:06:13.439Z,2.7
2018-07-08T15:08:16.751Z,3.2
2018-07-08T15:10:21.040Z,3.8
2018-07-08T15:12:24.360Z,4.5
2018-07-08T15:14:27.689Z,5.2
2018-07-08T15:16:34.023Z,5.5
2018-07-08T15:18:37.528Z,5.3
2018-07-08T15:20:43.657Z,4.6
2018-07-08T15:22:46.963Z,3.8
2018-07-08T15:24:50.293Z,3.3
2018-07-08T15:26:54.586Z,3
2018-07-08T15:28:58.081Z,2.9
2018-07-08T15:31:01.438Z,2.7
2018-07-08T15:33:04.766Z,2.6
2018-07-08T15:35:08.096Z,2.4
2018-07-08T15:37:14.412Z,2.2
2018-07-08T15:39:17.694Z,1.9
2018-07-08T15:41:21.258Z,1.7
2018-07-08T15:43:24.588Z,1.5
2018-07-08T15:45:27.915Z,1.6
2018-07-08T15:47:31.656Z,1.9
2018-07-08T15:49:35.483Z,2.3
2018-07-08T15:51:39.231Z,2.4
2018-07-08T15:53:42.702Z,2.5
2018-07-08T15:55:46.848Z,2.4
2018-07-08T15:57:50.176Z,2.1
2018-07-08T15:59:53.594Z,1.8
2018-07-08T16:01:56.870Z,1.4
2018-07-08T16:04:00.244Z,1.2
2018-07-08T16:06:03.802Z,0.9
2018-07-08T16:08:07.261Z,0.7
2018-07-08T16:10:10.589Z,0.5
2018-07-08T16:12:13.918Z,0.4
2018-07-08T16:14:17.256Z,0.4
2018-07-08T16:16:20.585Z,0.3
2018-07-08T16:18:24.161Z,0.3
2018-07-08T16:20:28.017Z,0.4
2018-07-08T16:22:31.341Z,0.4
2018-07-08T16:24:34.697Z,0.4
2018-07-08T16:26:38.024Z,0.5
2018-07-08T16:28:41.388Z,0.4
2018-07-08T16:30:44.722Z,0.4
2018-07-08T16:32:48.049Z,0.4
2018-07-08T16:34:51.388Z,0.4
2018-07-08T16:36:54.728Z,0.4
2018-07-08T16:38:58.126Z,0.5
2018-07-08T16:41:01.407Z,0.6
2018-07-08T16:43:04.794Z,0.8
2018-07-08T16:45:08.071Z,1.1
2018-07-08T16:47:11.401Z,1.3
2018-07-08T16:49:23.459Z,1.5
2018-07-08T16:51:27.274Z,1.6
2018-07-08T16:53:33.450Z,1.6
2018-07-08T16:55:36.782Z,1.4
2018-07-08T16:57:40.142Z,0.9
2018-07-08T16:59:44.459Z,0.5
2018-07-08T17:01:47.790Z,0.4
2018-07-08T17:03:51.119Z,0.3
2018-07-08T17:05:54.447Z,0.2
2018-07-08T17:07:58.762Z,0.2
2018-07-08T17:10:02.224Z,0.2
2018-07-08T17:12:05.589Z,0.3
2018-07-08T17:14:12.663Z,4.5
2018-07-08T17:16:16.119Z,4.5
2018-07-08T17:18:20.264Z,4.4
2018-07-08T17:20:23.623Z,4.4
2018-07-08T17:22:27.936Z,4.3
2018-07-08T17:24:33.913Z,4.3
2018-07-08T17:26:38.859Z,4.3
2018-07-08T17:28:45.086Z,4.5
2018-07-08T17:30:48.417Z,4.4
2018-07-08T17:32:51.833Z,4.4
2018-07-08T17:34:55.192Z,4.3
2018-07-08T17:36:58.485Z,4.3
2018-07-08T17:39:01.812Z,4.4
2018-07-08T17:41:06.310Z,4.5
2018-07-08T17:43:09.633Z,4.5
2018-07-08T17:45:12.972Z,4.5
2018-07-08T17:47:16.293Z,4.4
2018-07-08T17:49:19.657Z,4.4
2018-07-08T17:51:23.173Z,4.3
2018-07-08T17:53:26.557Z,5
2018-07-08T17:55:30.128Z,23.4
2018-07-08T17:57:33.474Z,22.9
2018-07-08T17:59:37.033Z,22.2
2018-07-08T18:01:40.382Z,21.8
2018-07-08T18:03:43.688Z,21.7
2018-07-08T18:05:47.017Z,21.8
2018-07-08T18:07:51.344Z,21.7
2018-07-08T18:09:54.621Z,21.8
2018-07-08T18:11:57.986Z,21.6
2018-07-08T18:14:01.468Z,21.1
2018-07-08T18:16:04.810Z,21.1
2018-07-08T18:18:08.138Z,23.2
2018-07-08T18:20:11.466Z,23.8
2018-07-08T18:22:14.807Z,23.4
2018-07-08T18:24:18.135Z,21.5
2018-07-08T18:26:21.485Z,21.4
2018-07-08T18:28:24.798Z,21.1
2018-07-08T18:30:29.052Z,21.1
2018-07-08T18:32:32.388Z,21.1
2018-07-08T18:34:35.723Z,18.2
2018-07-08T18:36:39.054Z,18.5
2018-07-08T18:38:42.387Z,18.4
2018-07-08T18:40:52.281Z,18
2018-07-08T18:42:55.709Z,19.9
2018-07-08T18:44:59.031Z,18
2018-07-08T18:47:02.358Z,17.9
2018-07-08T18:49:05.730Z,18.1
2018-07-08T18:51:09.064Z,18.1
2018-07-08T18:53:12.460Z,17.9
2018-07-08T18:55:15.966Z,18.1
2018-07-08T18:57:19.309Z,19.7
2018-07-08T18:59:23.099Z,17.6
2018-07-08T19:01:26.488Z,22.6
2018-07-08T19:03:29.816Z,20.6
2018-07-08T19:05:33.161Z,20.7
2018-07-08T19:07:36.499Z,20.6
2018-07-08T19:09:39.839Z,20.6
2018-07-08T19:11:43.168Z,20.7
2018-07-08T19:13:46.539Z,20.6
2018-07-08T19:15:49.870Z,20.6
2018-07-08T19:17:53.344Z,22.8
2018-07-08T19:19:56.633Z,22.7
2018-07-08T19:21:59.968Z,22.6
2018-07-08T19:24:03.352Z,22.3
2018-07-08T19:26:06.702Z,22.7
2018-07-08T19:28:10.030Z,22.9
2018-07-08T19:30:13.371Z,22.9
2018-07-08T19:32:16.693Z,22.7
2018-07-08T19:34:20.024Z,22.6
2018-07-08T19:36:23.354Z,22.6
2018-07-08T19:38:26.684Z,22.6
2018-07-08T19:40:30.506Z,22.6
2018-07-08T19:42:36.398Z,22.6
2018-07-08T19:44:39.728Z,22.6
2018-07-08T19:46:43.245Z,22.5
2018-07-08T19:48:46.577Z,22.5
2018-07-08T19:50:49.904Z,22.1
2018-07-08T19:52:53.284Z,22.4
2018-07-08T19:54:56.614Z,23
2018-07-08T19:56:59.943Z,20.7
2018-07-08T19:59:03.406Z,20.7
2018-07-08T20:01:07.485Z,20.4
2018-07-08T20:03:10.760Z,22.9
2018-07-08T20:05:14.090Z,22.7
2018-07-08T20:07:17.549Z,22.7
2018-07-08T20:09:20.957Z,22.6
2018-07-08T20:11:24.282Z,22.7
2018-07-08T20:13:27.614Z,22.6
2018-07-08T20:15:31.032Z,22.6
2018-07-08T20:17:34.397Z,22.5
2018-07-08T20:19:37.833Z,22.6
2018-07-08T20:21:41.592Z,22.6
2018-07-08T20:23:45.185Z,22.6
2018-07-08T20:25:48.514Z,22.6
2018-07-08T20:27:51.847Z,22.7
2018-07-08T20:29:55.179Z,22.7
2018-07-08T20:31:58.505Z,22.7
2018-07-08T20:34:01.863Z,23
2018-07-08T20:36:05.396Z,22.9
2018-07-08T20:38:08.727Z,22.7
2018-07-08T20:40:12.063Z,22.8
2018-07-08T20:42:15.393Z,22.9
2018-07-08T20:44:19.706Z,22.4
2018-07-08T20:46:22.986Z,22.5
2018-07-08T20:48:26.319Z,22.8
2018-07-08T20:50:29.654Z,22.9
2018-07-08T20:52:32.986Z,23
2018-07-08T20:54:36.393Z,23.2
2018-07-08T20:56:39.669Z,23.2
2018-07-08T20:58:43.003Z,23
2018-07-08T21:00:46.488Z,23.2
2018-07-08T21:02:49.824Z,18.1
2018-07-08T21:04:53.147Z,18.1
2018-07-08T21:06:56.479Z,17.6
2018-07-08T21:08:59.811Z,17.9
2018-07-08T21:11:03.168Z,20.2
2018-07-08T21:13:06.498Z,19.5
2018-07-08T21:15:09.832Z,19.7
2018-07-08T21:17:13.230Z,19.1
2018-07-08T21:19:16.674Z,20.1
2018-07-08T21:21:20.054Z,17.7
2018-07-08T21:23:23.385Z,19.1
2018-07-08T21:25:26.716Z,19
2018-07-08T21:27:30.047Z,19.7
2018-07-08T21:29:33.384Z,18.3
2018-07-08T21:31:36.718Z,17.5
2018-07-08T21:33:40.071Z,17.5
2018-07-08T21:35:43.383Z,19.8
2018-07-08T21:37:46.710Z,8.6
2018-07-08T21:39:50.042Z,17.5
2018-07-08T21:41:53.384Z,20.3
2018-07-08T21:43:56.733Z,20.3
2018-07-08T21:46:00.065Z,20.3
2018-07-08T21:48:03.396Z,20.2
2018-07-08T21:50:06.744Z,20.3
2018-07-08T21:52:10.084Z,20.3
2018-07-08T21:54:13.408Z,20.3
2018-07-08T21:56:16.738Z,20.3
2018-07-08T21:58:21.001Z,20.3
2018-07-08T22:00:24.331Z,20.3
2018-07-08T22:02:27.667Z,17.7
2018-07-08T22:04:30.993Z,17.7
2018-07-08T22:06:34.329Z,17.7
2018-07-08T22:08:37.658Z,19.5
2018-07-08T22:10:41.030Z,19.6
2018-07-08T22:12:44.363Z,19.5
2018-07-08T22:14:47.696Z,7
2018-07-08T22:16:51.069Z,7.3
2018-07-08T22:18:54.392Z,6.9
2018-07-08T22:20:57.723Z,7.3
2018-07-08T22:23:01.052Z,6.9
2018-07-08T22:25:04.427Z,7.2
2018-07-08T22:27:07.757Z,4.2
2018-07-08T22:29:11.091Z,7.3
2018-07-08T22:31:14.416Z,7.6
2018-07-08T22:33:17.780Z,18.1
2018-07-08T22:35:21.112Z,20.4
2018-07-08T22:37:24.443Z,20.7
2018-07-08T22:39:27.931Z,20.4
2018-07-08T22:41:31.309Z,20.5
2018-07-08T22:43:37.360Z,20.4
2018-07-08T22:45:40.692Z,20.4
2018-07-08T22:47:44.023Z,20.4
2018-07-08T22:49:47.414Z,20.4
2018-07-08T22:51:50.744Z,20.3
2018-07-08T22:53:54.117Z,20.4
2018-07-08T22:55:57.408Z,20.6
2018-07-08T22:58:00.741Z,20.5
2018-07-08T23:00:04.221Z,20.4
2018-07-08T23:02:07.538Z,21.1
2018-07-08T23:04:10.902Z,21.1
2018-07-08T23:06:14.229Z,21
2018-07-08T23:08:17.562Z,21
2018-07-08T23:10:20.891Z,21.1
2018-07-08T23:12:24.569Z,21
2018-07-08T23:14:28.293Z,21.1
2018-07-08T23:16:31.622Z,18.9
2018-07-08T23:18:34.998Z,19
2018-07-08T23:20:38.321Z,19
2018-07-08T23:22:41.655Z,16.6
2018-07-08T23:24:44.988Z,16
2018-07-08T23:26:48.317Z,15.9
2018-07-08T23:28:51.646Z,15.6
2018-07-08T23:30:54.981Z,15.7
2018-07-08T23:32:58.312Z,15.8
2018-07-08T23:35:01.675Z,15.8
2018-07-08T23:37:05.043Z,16.1
2018-07-08T23:39:08.373Z,15.9
2018-07-08T23:41:11.709Z,15.6
2018-07-08T23:43:15.037Z,15.6
2018-07-08T23:45:18.367Z,15.8
2018-07-08T23:47:21.698Z,15.8
2018-07-08T23:49:25.028Z,15.8
2018-07-08T23:51:28.359Z,15.8
2018-07-08T23:53:31.692Z,4.3
2018-07-08T23:55:35.025Z,4.3
2018-07-08T23:57:38.352Z,4.3
2018-07-08T23:59:41.718Z,4.3
